Etusivu
METAR-TAF:

METAR-TAF

Lentoasemat :

Chongqing, Kiina

Chongqing Jiangbein kansainvälinen lentoasema

Leveyspiiri: 29-31N, Pituuspiiri: 106-29E, korkeus merenpinnasta: 351 m

Tämänhetkinen sää

Tämä raportti tehtiin 50 minuuttia sitten, kello 21.00 UTC
Tuuli 6 kn pohjoisesta
Lämpötila 8°C
Kosteus 87%
Ilmanpaine 1018 hPa
Näkyvyys 10 km tai enemmän
Hajanaisia pilviä 2300 ft:n korkeudessa
Pilvistä 4300 ft:n korkeudessa

METAR: ZUCK 122100Z 01003MPS 9999 SCT023 OVC043 08/06 Q1018 NOSIG

Aika: 05:50 (21:50 UTC)

Sääennuste

Tämä raportti tehtiin 6 tuntia ja 46 minuuttia sitten, kello 15.04 UTC
Ennuste voimassa 12. päivästä klo 18 UTC - 13. päivään klo 18 UTC
Tuuli 6 kn koillisesta
Näkyvyys: 3500 m
Pilvistä 3000 ft:n korkeudessa
utua

TAF: ZUCK 121504Z 1218/1318 05003MPS 3500 BR OVC030 TX12/1307Z TN09/1222Z

Säähavainnot ja -ennusteet yli 4000 lentoasemalta (METAR- ja TAF-raportit).

Käytössä olevat sääasemat on merkitty karttaan keltaisilla ja punaisilla pisteillä.

Aseta hiiri pisteen päälle nähdäksesi sääaseman nimen.

Klikkaa sitten nähdäksesi säähavainnot ja -ennusteet.

Kartan vaihtaminen: klikkaa mustalla rastilla varustettuja vihreitä pisteitä, niin voit zoomata sisään; viivalla varustettua vihreää pistettä, niin voit zoomata ulos tai vihreitä nuolia, niin pääset viereisille kartoille.


METAR-TAF: